sensor_id;sensor_type;location;lat;lon;timestamp;P1;durP1;ratioP1;P2;durP2;ratioP2
79348;SDS011;68817;48.110;11.660;2023-04-15T00:00:13;3.72;;;1.65;;
79348;SDS011;68817;48.110;11.660;2023-04-15T00:02:41;4.93;;;2.33;;
79348;SDS011;68817;48.110;11.660;2023-04-15T00:05:06;3.92;;;1.88;;
79348;SDS011;68817;48.110;11.660;2023-04-15T00:07:32;5.53;;;1.90;;
79348;SDS011;68817;48.110;11.660;2023-04-15T00:09:57;3.08;;;1.90;;
79348;SDS011;68817;48.110;11.660;2023-04-15T00:12:23;5.70;;;1.98;;
79348;SDS011;68817;48.110;11.660;2023-04-15T00:14:50;3.53;;;2.00;;
79348;SDS011;68817;48.110;11.660;2023-04-15T00:17:15;3.92;;;2.20;;
79348;SDS011;68817;48.110;11.660;2023-04-15T00:19:41;2.42;;;1.65;;
79348;SDS011;68817;48.110;11.660;2023-04-15T00:22:08;3.28;;;1.77;;
79348;SDS011;68817;48.110;11.660;2023-04-15T00:24:34;4.55;;;2.08;;
79348;SDS011;68817;48.110;11.660;2023-04-15T00:26:59;3.13;;;2.10;;
79348;SDS011;68817;48.110;11.660;2023-04-15T00:29:25;5.13;;;1.92;;
79348;SDS011;68817;48.110;11.660;2023-04-15T00:31:50;3.83;;;1.92;;
79348;SDS011;68817;48.110;11.660;2023-04-15T00:34:15;2.50;;;2.10;;
79348;SDS011;68817;48.110;11.660;2023-04-15T00:36:41;2.90;;;1.88;;
79348;SDS011;68817;48.110;11.660;2023-04-15T00:39:07;4.55;;;2.00;;
79348;SDS011;68817;48.110;11.660;2023-04-15T00:41:32;3.53;;;2.20;;
79348;SDS011;68817;48.110;11.660;2023-04-15T00:43:58;5.70;;;2.22;;
79348;SDS011;68817;48.110;11.660;2023-04-15T00:46:25;3.45;;;2.10;;
79348;SDS011;68817;48.110;11.660;2023-04-15T00:48:51;3.53;;;2.35;;
79348;SDS011;68817;48.110;11.660;2023-04-15T00:51:18;4.03;;;2.28;;
79348;SDS011;68817;48.110;11.660;2023-04-15T00:53:44;4.95;;;2.40;;
79348;SDS011;68817;48.110;11.660;2023-04-15T00:56:09;4.18;;;2.05;;
79348;SDS011;68817;48.110;11.660;2023-04-15T00:58:34;3.97;;;2.15;;
79348;SDS011;68817;48.110;11.660;2023-04-15T01:01:01;4.47;;;2.20;;
79348;SDS011;68817;48.110;11.660;2023-04-15T01:03:28;4.72;;;2.40;;
79348;SDS011;68817;48.110;11.660;2023-04-15T01:05:54;4.75;;;2.60;;
79348;SDS011;68817;48.110;11.660;2023-04-15T01:08:26;5.82;;;2.58;;
79348;SDS011;68817;48.110;11.660;2023-04-15T01:10:53;3.88;;;2.28;;
79348;SDS011;68817;48.110;11.660;2023-04-15T01:13:19;3.85;;;2.63;;
79348;SDS011;68817;48.110;11.660;2023-04-15T01:15:46;4.05;;;2.08;;
79348;SDS011;68817;48.110;11.660;2023-04-15T01:18:12;3.38;;;2.50;;
79348;SDS011;68817;48.110;11.660;2023-04-15T01:20:38;4.43;;;2.33;;
79348;SDS011;68817;48.110;11.660;2023-04-15T01:23:04;3.83;;;2.33;;
79348;SDS011;68817;48.110;11.660;2023-04-15T01:25:30;4.65;;;2.10;;
79348;SDS011;68817;48.110;11.660;2023-04-15T01:27:57;4.93;;;2.80;;
79348;SDS011;68817;48.110;11.660;2023-04-15T01:30:23;5.32;;;2.15;;
79348;SDS011;68817;48.110;11.660;2023-04-15T01:32:48;3.42;;;2.28;;
79348;SDS011;68817;48.110;11.660;2023-04-15T01:35:13;5.20;;;2.35;;
79348;SDS011;68817;48.110;11.660;2023-04-15T01:37:39;6.25;;;2.88;;
79348;SDS011;68817;48.110;11.660;2023-04-15T01:40:05;4.68;;;2.20;;
79348;SDS011;68817;48.110;11.660;2023-04-15T01:42:31;3.78;;;2.17;;
79348;SDS011;68817;48.110;11.660;2023-04-15T01:44:56;3.35;;;2.25;;
79348;SDS011;68817;48.110;11.660;2023-04-15T01:47:22;3.33;;;1.92;;
79348;SDS011;68817;48.110;11.660;2023-04-15T01:49:47;4.43;;;2.55;;
79348;SDS011;68817;48.110;11.660;2023-04-15T01:52:12;7.72;;;2.60;;
79348;SDS011;68817;48.110;11.660;2023-04-15T01:54:38;4.15;;;2.47;;
79348;SDS011;68817;48.110;11.660;2023-04-15T01:57:05;4.15;;;2.15;;
79348;SDS011;68817;48.110;11.660;2023-04-15T01:59:30;4.43;;;2.13;;
79348;SDS011;68817;48.110;11.660;2023-04-15T02:01:57;4.78;;;2.15;;
79348;SDS011;68817;48.110;11.660;2023-04-15T02:04:22;5.63;;;2.65;;
79348;SDS011;68817;48.110;11.660;2023-04-15T02:06:48;6.90;;;2.83;;
79348;SDS011;68817;48.110;11.660;2023-04-15T02:09:13;6.28;;;2.72;;
79348;SDS011;68817;48.110;11.660;2023-04-15T02:11:39;6.93;;;2.65;;
79348;SDS011;68817;48.110;11.660;2023-04-15T02:14:04;4.65;;;2.60;;
79348;SDS011;68817;48.110;11.660;2023-04-15T02:16:30;6.25;;;2.25;;
79348;SDS011;68817;48.110;11.660;2023-04-15T02:18:56;4.85;;;2.50;;
79348;SDS011;68817;48.110;11.660;2023-04-15T02:21:21;5.45;;;2.60;;
79348;SDS011;68817;48.110;11.660;2023-04-15T02:23:47;5.90;;;3.03;;
79348;SDS011;68817;48.110;11.660;2023-04-15T02:26:13;3.50;;;2.47;;
79348;SDS011;68817;48.110;11.660;2023-04-15T02:28:38;5.80;;;2.53;;
79348;SDS011;68817;48.110;11.660;2023-04-15T02:31:04;6.55;;;2.67;;
79348;SDS011;68817;48.110;11.660;2023-04-15T02:33:30;4.90;;;2.22;;
79348;SDS011;68817;48.110;11.660;2023-04-15T02:35:58;4.90;;;2.80;;
79348;SDS011;68817;48.110;11.660;2023-04-15T02:38:24;5.32;;;2.97;;
79348;SDS011;68817;48.110;11.660;2023-04-15T02:40:50;5.70;;;2.80;;
79348;SDS011;68817;48.110;11.660;2023-04-15T02:43:16;4.38;;;2.70;;
79348;SDS011;68817;48.110;11.660;2023-04-15T02:45:41;7.00;;;2.50;;
79348;SDS011;68817;48.110;11.660;2023-04-15T02:48:08;4.18;;;2.53;;
79348;SDS011;68817;48.110;11.660;2023-04-15T02:50:34;5.10;;;2.50;;
79348;SDS011;68817;48.110;11.660;2023-04-15T02:53:01;6.28;;;2.53;;
79348;SDS011;68817;48.110;11.660;2023-04-15T02:55:28;6.95;;;2.80;;
79348;SDS011;68817;48.110;11.660;2023-04-15T02:57:53;5.32;;;2.78;;
79348;SDS011;68817;48.110;11.660;2023-04-15T03:00:18;4.32;;;2.47;;
79348;SDS011;68817;48.110;11.660;2023-04-15T03:02:46;5.97;;;2.67;;
79348;SDS011;68817;48.110;11.660;2023-04-15T03:05:12;3.80;;;2.38;;
79348;SDS011;68817;48.110;11.660;2023-04-15T03:07:40;4.88;;;2.55;;
79348;SDS011;68817;48.110;11.660;2023-04-15T03:10:06;3.03;;;2.13;;
79348;SDS011;68817;48.110;11.660;2023-04-15T03:12:32;5.43;;;2.72;;
79348;SDS011;68817;48.110;11.660;2023-04-15T03:14:58;5.90;;;2.60;;
79348;SDS011;68817;48.110;11.660;2023-04-15T03:17:32;4.05;;;2.60;;
79348;SDS011;68817;48.110;11.660;2023-04-15T03:19:58;5.07;;;2.67;;
79348;SDS011;68817;48.110;11.660;2023-04-15T03:22:23;5.30;;;2.65;;
79348;SDS011;68817;48.110;11.660;2023-04-15T03:24:50;5.47;;;2.50;;
79348;SDS011;68817;48.110;11.660;2023-04-15T03:27:15;5.38;;;2.47;;
79348;SDS011;68817;48.110;11.660;2023-04-15T03:29:41;6.03;;;2.70;;
79348;SDS011;68817;48.110;11.660;2023-04-15T03:32:06;5.13;;;2.60;;
79348;SDS011;68817;48.110;11.660;2023-04-15T03:34:33;7.40;;;2.88;;
79348;SDS011;68817;48.110;11.660;2023-04-15T03:36:58;4.53;;;2.42;;
79348;SDS011;68817;48.110;11.660;2023-04-15T03:39:24;4.20;;;2.70;;
79348;SDS011;68817;48.110;11.660;2023-04-15T03:41:49;5.07;;;2.90;;
79348;SDS011;68817;48.110;11.660;2023-04-15T03:44:14;4.93;;;2.10;;
79348;SDS011;68817;48.110;11.660;2023-04-15T03:46:40;5.60;;;2.83;;
79348;SDS011;68817;48.110;11.660;2023-04-15T03:49:06;3.90;;;2.50;;
79348;SDS011;68817;48.110;11.660;2023-04-15T03:51:31;7.57;;;2.97;;
79348;SDS011;68817;48.110;11.660;2023-04-15T03:53:56;6.22;;;2.10;;
79348;SDS011;68817;48.110;11.660;2023-04-15T03:56:23;5.60;;;2.13;;
79348;SDS011;68817;48.110;11.660;2023-04-15T03:58:48;5.07;;;2.10;;
79348;SDS011;68817;48.110;11.660;2023-04-15T04:01:14;3.78;;;2.28;;
79348;SDS011;68817;48.110;11.660;2023-04-15T04:03:39;4.30;;;2.10;;
79348;SDS011;68817;48.110;11.660;2023-04-15T04:06:05;3.58;;;2.28;;
79348;SDS011;68817;48.110;11.660;2023-04-15T04:08:30;3.65;;;2.40;;
79348;SDS011;68817;48.110;11.660;2023-04-15T04:10:56;3.17;;;2.03;;
79348;SDS011;68817;48.110;11.660;2023-04-15T04:13:22;4.55;;;2.83;;
79348;SDS011;68817;48.110;11.660;2023-04-15T04:15:47;3.78;;;2.15;;
79348;SDS011;68817;48.110;11.660;2023-04-15T04:18:12;6.45;;;2.55;;
79348;SDS011;68817;48.110;11.660;2023-04-15T04:20:38;5.30;;;2.28;;
79348;SDS011;68817;48.110;11.660;2023-04-15T04:23:03;3.65;;;2.00;;
79348;SDS011;68817;48.110;11.660;2023-04-15T04:25:28;7.00;;;1.92;;
79348;SDS011;68817;48.110;11.660;2023-04-15T04:27:54;4.57;;;2.25;;
79348;SDS011;68817;48.110;11.660;2023-04-15T04:30:19;3.35;;;1.73;;
79348;SDS011;68817;48.110;11.660;2023-04-15T04:32:45;4.93;;;1.85;;
79348;SDS011;68817;48.110;11.660;2023-04-15T04:35:10;4.25;;;2.17;;
79348;SDS011;68817;48.110;11.660;2023-04-15T04:37:36;2.75;;;2.00;;
79348;SDS011;68817;48.110;11.660;2023-04-15T04:40:01;3.95;;;1.90;;
79348;SDS011;68817;48.110;11.660;2023-04-15T04:42:26;5.15;;;2.30;;
79348;SDS011;68817;48.110;11.660;2023-04-15T04:44:52;4.07;;;2.05;;
79348;SDS011;68817;48.110;11.660;2023-04-15T04:47:17;4.40;;;1.83;;
79348;SDS011;68817;48.110;11.660;2023-04-15T04:49:43;5.80;;;1.90;;
79348;SDS011;68817;48.110;11.660;2023-04-15T04:52:08;3.70;;;2.05;;
79348;SDS011;68817;48.110;11.660;2023-04-15T04:54:33;4.25;;;1.90;;
79348;SDS011;68817;48.110;11.660;2023-04-15T04:56:59;4.35;;;2.20;;
79348;SDS011;68817;48.110;11.660;2023-04-15T04:59:24;6.82;;;2.05;;
79348;SDS011;68817;48.110;11.660;2023-04-15T05:01:50;3.78;;;1.75;;
79348;SDS011;68817;48.110;11.660;2023-04-15T05:04:16;3.30;;;2.40;;
79348;SDS011;68817;48.110;11.660;2023-04-15T05:06:41;4.70;;;2.28;;
79348;SDS011;68817;48.110;11.660;2023-04-15T05:09:06;6.07;;;2.28;;
79348;SDS011;68817;48.110;11.660;2023-04-15T05:11:32;6.50;;;2.00;;
79348;SDS011;68817;48.110;11.660;2023-04-15T05:13:57;4.50;;;1.98;;
79348;SDS011;68817;48.110;11.660;2023-04-15T05:16:25;4.15;;;2.35;;
79348;SDS011;68817;48.110;11.660;2023-04-15T05:18:51;2.75;;;1.92;;
79348;SDS011;68817;48.110;11.660;2023-04-15T05:21:16;3.97;;;1.73;;
79348;SDS011;68817;48.110;11.660;2023-04-15T05:23:42;5.93;;;2.13;;
79348;SDS011;68817;48.110;11.660;2023-04-15T05:26:07;5.05;;;2.17;;
79348;SDS011;68817;48.110;11.660;2023-04-15T05:28:33;2.60;;;1.75;;
79348;SDS011;68817;48.110;11.660;2023-04-15T05:30:58;4.90;;;2.05;;
79348;SDS011;68817;48.110;11.660;2023-04-15T05:33:23;6.38;;;1.80;;
79348;SDS011;68817;48.110;11.660;2023-04-15T05:35:49;3.72;;;2.13;;
79348;SDS011;68817;48.110;11.660;2023-04-15T05:38:14;4.22;;;1.85;;
79348;SDS011;68817;48.110;11.660;2023-04-15T05:40:40;4.22;;;1.98;;
79348;SDS011;68817;48.110;11.660;2023-04-15T05:43:05;3.67;;;1.60;;
79348;SDS011;68817;48.110;11.660;2023-04-15T05:45:31;3.80;;;1.75;;
79348;SDS011;68817;48.110;11.660;2023-04-15T05:47:56;3.00;;;1.50;;
79348;SDS011;68817;48.110;11.660;2023-04-15T05:50:21;5.22;;;2.00;;
79348;SDS011;68817;48.110;11.660;2023-04-15T05:52:47;2.25;;;1.70;;
79348;SDS011;68817;48.110;11.660;2023-04-15T05:55:12;5.40;;;1.63;;
79348;SDS011;68817;48.110;11.660;2023-04-15T05:57:38;4.40;;;1.52;;
79348;SDS011;68817;48.110;11.660;2023-04-15T06:00:04;2.50;;;1.30;;
79348;SDS011;68817;48.110;11.660;2023-04-15T06:02:34;5.18;;;1.60;;
79348;SDS011;68817;48.110;11.660;2023-04-15T06:05:00;2.42;;;1.20;;
79348;SDS011;68817;48.110;11.660;2023-04-15T06:07:25;2.88;;;1.30;;
79348;SDS011;68817;48.110;11.660;2023-04-15T06:09:51;3.92;;;1.67;;
79348;SDS011;68817;48.110;11.660;2023-04-15T06:12:16;5.40;;;1.52;;
79348;SDS011;68817;48.110;11.660;2023-04-15T06:14:41;2.83;;;1.50;;
79348;SDS011;68817;48.110;11.660;2023-04-15T06:17:07;2.55;;;1.10;;
79348;SDS011;68817;48.110;11.660;2023-04-15T06:19:33;3.85;;;1.10;;
79348;SDS011;68817;48.110;11.660;2023-04-15T06:22:00;2.80;;;1.30;;
79348;SDS011;68817;48.110;11.660;2023-04-15T06:24:25;2.65;;;1.40;;
79348;SDS011;68817;48.110;11.660;2023-04-15T06:26:51;3.50;;;1.30;;
79348;SDS011;68817;48.110;11.660;2023-04-15T06:29:16;5.40;;;1.35;;
79348;SDS011;68817;48.110;11.660;2023-04-15T06:31:42;8.23;;;1.52;;
79348;SDS011;68817;48.110;11.660;2023-04-15T06:34:07;3.67;;;1.73;;
79348;SDS011;68817;48.110;11.660;2023-04-15T06:36:32;2.40;;;1.30;;
79348;SDS011;68817;48.110;11.660;2023-04-15T06:38:58;3.88;;;1.48;;
79348;SDS011;68817;48.110;11.660;2023-04-15T06:41:23;3.95;;;1.50;;
79348;SDS011;68817;48.110;11.660;2023-04-15T06:43:49;3.53;;;1.42;;
79348;SDS011;68817;48.110;11.660;2023-04-15T06:46:14;1.67;;;1.35;;
79348;SDS011;68817;48.110;11.660;2023-04-15T06:48:40;2.80;;;1.35;;
79348;SDS011;68817;48.110;11.660;2023-04-15T06:51:05;2.70;;;1.55;;
79348;SDS011;68817;48.110;11.660;2023-04-15T06:53:31;4.18;;;1.30;;
79348;SDS011;68817;48.110;11.660;2023-04-15T06:55:56;4.40;;;1.10;;
79348;SDS011;68817;48.110;11.660;2023-04-15T06:58:22;3.78;;;1.42;;
79348;SDS011;68817;48.110;11.660;2023-04-15T07:00:47;3.35;;;1.23;;
79348;SDS011;68817;48.110;11.660;2023-04-15T07:03:13;2.88;;;1.40;;
79348;SDS011;68817;48.110;11.660;2023-04-15T07:05:39;3.33;;;1.50;;
79348;SDS011;68817;48.110;11.660;2023-04-15T07:08:05;3.78;;;1.10;;
79348;SDS011;68817;48.110;11.660;2023-04-15T07:10:32;2.83;;;1.08;;
79348;SDS011;68817;48.110;11.660;2023-04-15T07:12:57;2.78;;;1.08;;
79348;SDS011;68817;48.110;11.660;2023-04-15T07:15:23;3.95;;;1.58;;
79348;SDS011;68817;48.110;11.660;2023-04-15T07:17:49;2.67;;;0.95;;
79348;SDS011;68817;48.110;11.660;2023-04-15T07:20:14;1.75;;;1.23;;
79348;SDS011;68817;48.110;11.660;2023-04-15T07:22:39;3.97;;;1.25;;
79348;SDS011;68817;48.110;11.660;2023-04-15T07:25:05;2.88;;;1.65;;
79348;SDS011;68817;48.110;11.660;2023-04-15T07:27:31;2.25;;;1.08;;
79348;SDS011;68817;48.110;11.660;2023-04-15T07:29:57;4.95;;;1.30;;
79348;SDS011;68817;48.110;11.660;2023-04-15T07:32:22;2.22;;;1.13;;
79348;SDS011;68817;48.110;11.660;2023-04-15T07:34:48;2.85;;;1.05;;
79348;SDS011;68817;48.110;11.660;2023-04-15T07:37:13;3.70;;;1.38;;
79348;SDS011;68817;48.110;11.660;2023-04-15T07:39:39;2.10;;;0.90;;
79348;SDS011;68817;48.110;11.660;2023-04-15T07:42:04;3.35;;;1.40;;
79348;SDS011;68817;48.110;11.660;2023-04-15T07:44:29;4.20;;;1.17;;
79348;SDS011;68817;48.110;11.660;2023-04-15T07:46:55;2.70;;;1.20;;
79348;SDS011;68817;48.110;11.660;2023-04-15T07:49:21;3.00;;;0.98;;
79348;SDS011;68817;48.110;11.660;2023-04-15T07:51:46;4.85;;;1.20;;
79348;SDS011;68817;48.110;11.660;2023-04-15T07:54:13;3.10;;;1.38;;
79348;SDS011;68817;48.110;11.660;2023-04-15T07:56:38;4.82;;;1.50;;
79348;SDS011;68817;48.110;11.660;2023-04-15T07:59:04;4.35;;;1.20;;
79348;SDS011;68817;48.110;11.660;2023-04-15T08:01:30;2.10;;;1.20;;
79348;SDS011;68817;48.110;11.660;2023-04-15T08:03:57;2.00;;;1.00;;
79348;SDS011;68817;48.110;11.660;2023-04-15T08:06:25;3.72;;;1.38;;
79348;SDS011;68817;48.110;11.660;2023-04-15T08:08:51;2.53;;;1.30;;
79348;SDS011;68817;48.110;11.660;2023-04-15T08:11:18;2.97;;;1.30;;
79348;SDS011;68817;48.110;11.660;2023-04-15T08:13:43;3.13;;;1.02;;
79348;SDS011;68817;48.110;11.660;2023-04-15T08:18:42;3.85;;;1.42;;
79348;SDS011;68817;48.110;11.660;2023-04-15T08:21:08;5.60;;;1.67;;
79348;SDS011;68817;48.110;11.660;2023-04-15T08:23:34;2.80;;;1.50;;
79348;SDS011;68817;48.110;11.660;2023-04-15T08:25:59;4.10;;;1.52;;
79348;SDS011;68817;48.110;11.660;2023-04-15T08:28:25;3.33;;;1.30;;
79348;SDS011;68817;48.110;11.660;2023-04-15T08:30:54;3.13;;;1.40;;
79348;SDS011;68817;48.110;11.660;2023-04-15T08:33:19;3.28;;;1.50;;
79348;SDS011;68817;48.110;11.660;2023-04-15T08:35:45;3.85;;;1.30;;
79348;SDS011;68817;48.110;11.660;2023-04-15T08:38:10;4.57;;;1.60;;
79348;SDS011;68817;48.110;11.660;2023-04-15T08:40:42;2.72;;;1.40;;
79348;SDS011;68817;48.110;11.660;2023-04-15T08:43:13;3.47;;;1.20;;
79348;SDS011;68817;48.110;11.660;2023-04-15T08:45:41;2.35;;;1.30;;
79348;SDS011;68817;48.110;11.660;2023-04-15T08:48:07;4.85;;;1.40;;
79348;SDS011;68817;48.110;11.660;2023-04-15T08:50:34;4.28;;;1.70;;
79348;SDS011;68817;48.110;11.660;2023-04-15T08:52:59;4.97;;;1.70;;
79348;SDS011;68817;48.110;11.660;2023-04-15T08:55:26;2.50;;;1.38;;
79348;SDS011;68817;48.110;11.660;2023-04-15T08:57:53;3.78;;;1.50;;
79348;SDS011;68817;48.110;11.660;2023-04-15T09:00:19;2.92;;;1.67;;
79348;SDS011;68817;48.110;11.660;2023-04-15T09:02:44;3.35;;;1.80;;
79348;SDS011;68817;48.110;11.660;2023-04-15T09:05:10;2.97;;;1.42;;
79348;SDS011;68817;48.110;11.660;2023-04-15T09:07:36;2.22;;;1.50;;
79348;SDS011;68817;48.110;11.660;2023-04-15T09:10:02;5.95;;;1.83;;
79348;SDS011;68817;48.110;11.660;2023-04-15T09:12:28;3.53;;;1.48;;
79348;SDS011;68817;48.110;11.660;2023-04-15T09:14:53;3.90;;;1.50;;
79348;SDS011;68817;48.110;11.660;2023-04-15T09:17:19;2.65;;;1.27;;
79348;SDS011;68817;48.110;11.660;2023-04-15T09:19:45;5.32;;;1.52;;
79348;SDS011;68817;48.110;11.660;2023-04-15T09:22:11;3.17;;;1.60;;
79348;SDS011;68817;48.110;11.660;2023-04-15T09:24:37;2.70;;;1.52;;
79348;SDS011;68817;48.110;11.660;2023-04-15T09:27:05;4.40;;;1.50;;
79348;SDS011;68817;48.110;11.660;2023-04-15T09:29:30;2.05;;;1.60;;
79348;SDS011;68817;48.110;11.660;2023-04-15T09:31:56;2.92;;;1.45;;
79348;SDS011;68817;48.110;11.660;2023-04-15T09:34:36;3.58;;;1.67;;
79348;SDS011;68817;48.110;11.660;2023-04-15T09:37:02;2.13;;;1.50;;
79348;SDS011;68817;48.110;11.660;2023-04-15T09:39:43;3.67;;;1.50;;
79348;SDS011;68817;48.110;11.660;2023-04-15T09:42:11;2.83;;;1.50;;
79348;SDS011;68817;48.110;11.660;2023-04-15T09:44:36;3.30;;;1.90;;
79348;SDS011;68817;48.110;11.660;2023-04-15T09:47:01;2.67;;;1.60;;
79348;SDS011;68817;48.110;11.660;2023-04-15T09:49:27;2.83;;;1.65;;
79348;SDS011;68817;48.110;11.660;2023-04-15T09:51:56;5.18;;;2.20;;
79348;SDS011;68817;48.110;11.660;2023-04-15T09:54:23;3.88;;;1.80;;
79348;SDS011;68817;48.110;11.660;2023-04-15T09:56:48;6.93;;;2.30;;
79348;SDS011;68817;48.110;11.660;2023-04-15T09:59:13;4.35;;;2.58;;
79348;SDS011;68817;48.110;11.660;2023-04-15T10:01:39;3.92;;;2.78;;
79348;SDS011;68817;48.110;11.660;2023-04-15T10:04:06;4.30;;;2.25;;
79348;SDS011;68817;48.110;11.660;2023-04-15T10:06:32;3.22;;;2.10;;
79348;SDS011;68817;48.110;11.660;2023-04-15T10:08:58;4.47;;;2.10;;
79348;SDS011;68817;48.110;11.660;2023-04-15T10:11:23;4.35;;;2.50;;
79348;SDS011;68817;48.110;11.660;2023-04-15T10:13:50;5.80;;;2.40;;
79348;SDS011;68817;48.110;11.660;2023-04-15T10:16:18;4.10;;;2.30;;
79348;SDS011;68817;48.110;11.660;2023-04-15T10:18:45;4.05;;;2.70;;
79348;SDS011;68817;48.110;11.660;2023-04-15T10:21:12;5.82;;;2.97;;
79348;SDS011;68817;48.110;11.660;2023-04-15T10:23:40;5.13;;;3.65;;
79348;SDS011;68817;48.110;11.660;2023-04-15T10:26:06;6.95;;;3.35;;
79348;SDS011;68817;48.110;11.660;2023-04-15T10:28:31;7.57;;;3.63;;
79348;SDS011;68817;48.110;11.660;2023-04-15T10:30:58;4.20;;;2.92;;
79348;SDS011;68817;48.110;11.660;2023-04-15T10:33:24;3.60;;;2.67;;
79348;SDS011;68817;48.110;11.660;2023-04-15T10:35:51;6.53;;;3.03;;
79348;SDS011;68817;48.110;11.660;2023-04-15T10:41:24;5.32;;;3.03;;
79348;SDS011;68817;48.110;11.660;2023-04-15T10:49:12;6.85;;;2.97;;
79348;SDS011;68817;48.110;11.660;2023-04-15T10:51:39;5.85;;;2.65;;
79348;SDS011;68817;48.110;11.660;2023-04-15T10:54:08;5.00;;;2.95;;
79348;SDS011;68817;48.110;11.660;2023-04-15T10:56:37;4.93;;;3.20;;
79348;SDS011;68817;48.110;11.660;2023-04-15T10:59:05;4.50;;;2.72;;
79348;SDS011;68817;48.110;11.660;2023-04-15T11:12:37;6.43;;;2.80;;
79348;SDS011;68817;48.110;11.660;2023-04-15T11:17:57;5.45;;;3.13;;
79348;SDS011;68817;48.110;11.660;2023-04-15T11:20:23;9.00;;;2.78;;
79348;SDS011;68817;48.110;11.660;2023-04-15T11:22:49;6.05;;;2.85;;
79348;SDS011;68817;48.110;11.660;2023-04-15T11:25:24;3.92;;;2.72;;
79348;SDS011;68817;48.110;11.660;2023-04-15T11:27:51;7.78;;;2.88;;
79348;SDS011;68817;48.110;11.660;2023-04-15T11:32:47;5.70;;;2.92;;
79348;SDS011;68817;48.110;11.660;2023-04-15T11:35:15;3.53;;;2.65;;
79348;SDS011;68817;48.110;11.660;2023-04-15T11:37:41;5.63;;;3.20;;
79348;SDS011;68817;48.110;11.660;2023-04-15T11:40:07;7.93;;;2.83;;
79348;SDS011;68817;48.110;11.660;2023-04-15T11:42:33;5.85;;;2.70;;
79348;SDS011;68817;48.110;11.660;2023-04-15T11:45:11;4.60;;;2.97;;
79348;SDS011;68817;48.110;11.660;2023-04-15T11:47:42;4.43;;;2.80;;
79348;SDS011;68817;48.110;11.660;2023-04-15T11:50:17;5.20;;;3.03;;
79348;SDS011;68817;48.110;11.660;2023-04-15T11:55:22;5.47;;;3.40;;
79348;SDS011;68817;48.110;11.660;2023-04-15T11:58:07;5.30;;;2.92;;
79348;SDS011;68817;48.110;11.660;2023-04-15T12:00:33;7.35;;;3.55;;
79348;SDS011;68817;48.110;11.660;2023-04-15T12:11:16;4.22;;;2.88;;
79348;SDS011;68817;48.110;11.660;2023-04-15T12:13:43;5.15;;;2.83;;
79348;SDS011;68817;48.110;11.660;2023-04-15T12:16:10;4.50;;;2.85;;
79348;SDS011;68817;48.110;11.660;2023-04-15T12:18:38;6.78;;;2.88;;
79348;SDS011;68817;48.110;11.660;2023-04-15T12:21:08;4.70;;;3.17;;
79348;SDS011;68817;48.110;11.660;2023-04-15T12:23:36;5.15;;;2.97;;
79348;SDS011;68817;48.110;11.660;2023-04-15T12:26:04;4.53;;;3.15;;
79348;SDS011;68817;48.110;11.660;2023-04-15T12:28:30;3.17;;;2.45;;
79348;SDS011;68817;48.110;11.660;2023-04-15T12:30:56;4.05;;;2.50;;
79348;SDS011;68817;48.110;11.660;2023-04-15T12:33:22;6.72;;;3.10;;
79348;SDS011;68817;48.110;11.660;2023-04-15T12:35:47;4.07;;;2.92;;
79348;SDS011;68817;48.110;11.660;2023-04-15T12:38:13;4.70;;;2.67;;
79348;SDS011;68817;48.110;11.660;2023-04-15T12:40:38;4.22;;;2.67;;
79348;SDS011;68817;48.110;11.660;2023-04-15T12:43:03;4.90;;;2.55;;
79348;SDS011;68817;48.110;11.660;2023-04-15T12:45:29;6.28;;;2.90;;
79348;SDS011;68817;48.110;11.660;2023-04-15T12:47:54;6.40;;;2.72;;
79348;SDS011;68817;48.110;11.660;2023-04-15T12:50:20;4.15;;;2.42;;
79348;SDS011;68817;48.110;11.660;2023-04-15T12:52:45;3.97;;;2.50;;
79348;SDS011;68817;48.110;11.660;2023-04-15T12:55:10;5.18;;;2.53;;
79348;SDS011;68817;48.110;11.660;2023-04-15T12:57:36;3.13;;;2.30;;
79348;SDS011;68817;48.110;11.660;2023-04-15T13:00:01;5.70;;;2.65;;
79348;SDS011;68817;48.110;11.660;2023-04-15T13:02:30;4.60;;;2.60;;
79348;SDS011;68817;48.110;11.660;2023-04-15T13:04:56;4.90;;;2.17;;
79348;SDS011;68817;48.110;11.660;2023-04-15T13:07:21;3.40;;;2.10;;
79348;SDS011;68817;48.110;11.660;2023-04-15T13:09:46;4.03;;;2.42;;
79348;SDS011;68817;48.110;11.660;2023-04-15T13:12:12;5.18;;;2.58;;
79348;SDS011;68817;48.110;11.660;2023-04-15T13:14:38;2.92;;;2.05;;
79348;SDS011;68817;48.110;11.660;2023-04-15T13:17:03;3.63;;;1.73;;
79348;SDS011;68817;48.110;11.660;2023-04-15T13:19:34;4.88;;;1.90;;
79348;SDS011;68817;48.110;11.660;2023-04-15T13:22:00;4.20;;;2.00;;
79348;SDS011;68817;48.110;11.660;2023-04-15T13:24:26;3.67;;;2.10;;
79348;SDS011;68817;48.110;11.660;2023-04-15T13:26:51;3.55;;;2.40;;
79348;SDS011;68817;48.110;11.660;2023-04-15T13:29:17;3.92;;;2.30;;
79348;SDS011;68817;48.110;11.660;2023-04-15T13:31:43;4.35;;;2.38;;
79348;SDS011;68817;48.110;11.660;2023-04-15T13:34:08;5.68;;;2.58;;
79348;SDS011;68817;48.110;11.660;2023-04-15T13:36:33;3.92;;;2.17;;
79348;SDS011;68817;48.110;11.660;2023-04-15T13:38:59;6.10;;;2.50;;
79348;SDS011;68817;48.110;11.660;2023-04-15T13:41:24;5.30;;;2.40;;
79348;SDS011;68817;48.110;11.660;2023-04-15T13:43:50;4.68;;;2.80;;
79348;SDS011;68817;48.110;11.660;2023-04-15T13:46:15;4.78;;;2.45;;
79348;SDS011;68817;48.110;11.660;2023-04-15T13:48:41;4.22;;;2.45;;
79348;SDS011;68817;48.110;11.660;2023-04-15T13:51:06;4.47;;;2.70;;
79348;SDS011;68817;48.110;11.660;2023-04-15T13:53:32;2.97;;;2.33;;
79348;SDS011;68817;48.110;11.660;2023-04-15T13:55:57;5.10;;;2.55;;
79348;SDS011;68817;48.110;11.660;2023-04-15T13:58:22;4.93;;;2.70;;
79348;SDS011;68817;48.110;11.660;2023-04-15T14:00:48;5.25;;;2.80;;
79348;SDS011;68817;48.110;11.660;2023-04-15T14:03:13;3.83;;;2.38;;
79348;SDS011;68817;48.110;11.660;2023-04-15T14:05:39;3.92;;;2.75;;
79348;SDS011;68817;48.110;11.660;2023-04-15T14:08:04;4.50;;;2.70;;
79348;SDS011;68817;48.110;11.660;2023-04-15T14:10:30;6.07;;;3.10;;
79348;SDS011;68817;48.110;11.660;2023-04-15T14:12:55;2.92;;;2.30;;
79348;SDS011;68817;48.110;11.660;2023-04-15T14:15:20;4.47;;;2.40;;
79348;SDS011;68817;48.110;11.660;2023-04-15T14:17:46;4.55;;;2.58;;
79348;SDS011;68817;48.110;11.660;2023-04-15T14:20:11;4.28;;;2.58;;
79348;SDS011;68817;48.110;11.660;2023-04-15T14:22:36;3.17;;;2.20;;
79348;SDS011;68817;48.110;11.660;2023-04-15T14:25:02;3.50;;;2.30;;
79348;SDS011;68817;48.110;11.660;2023-04-15T14:27:28;5.65;;;2.38;;
79348;SDS011;68817;48.110;11.660;2023-04-15T14:29:53;4.85;;;2.30;;
79348;SDS011;68817;48.110;11.660;2023-04-15T14:32:19;3.13;;;1.90;;
79348;SDS011;68817;48.110;11.660;2023-04-15T14:34:45;5.75;;;2.05;;
79348;SDS011;68817;48.110;11.660;2023-04-15T14:37:10;4.88;;;2.13;;
79348;SDS011;68817;48.110;11.660;2023-04-15T14:39:35;3.70;;;2.08;;
79348;SDS011;68817;48.110;11.660;2023-04-15T14:42:01;2.97;;;2.17;;
79348;SDS011;68817;48.110;11.660;2023-04-15T14:44:26;3.72;;;2.00;;
79348;SDS011;68817;48.110;11.660;2023-04-15T14:46:52;4.25;;;2.17;;
79348;SDS011;68817;48.110;11.660;2023-04-15T14:49:17;3.17;;;2.30;;
79348;SDS011;68817;48.110;11.660;2023-04-15T14:51:43;3.17;;;2.33;;
79348;SDS011;68817;48.110;11.660;2023-04-15T14:54:10;5.15;;;2.45;;
79348;SDS011;68817;48.110;11.660;2023-04-15T14:56:35;2.53;;;2.00;;
79348;SDS011;68817;48.110;11.660;2023-04-15T14:59:00;3.92;;;2.63;;
79348;SDS011;68817;48.110;11.660;2023-04-15T15:01:26;4.53;;;2.25;;
79348;SDS011;68817;48.110;11.660;2023-04-15T15:03:51;3.00;;;2.17;;